Wetterdaten: Woche 02.04.12 - 08.04.12 (KW14)
Datum Zeit Temperatur Luftfeuchte Luftdruck Niederschlag Windrichtung Sonnenschein Solar Wind
02.04.2012 00:00 1,5 C 67 % 1013,2 hPa 0,0 l/m N 0,00 h 0 W/m 0,7 km/h (0 Bft)
02.04.2012 01:00 1,1 C 66 % 1013,1 hPa 0,0 l/m N 0,00 h 0 W/m 0,4 km/h (0 Bft)
02.04.2012 02:00 0,4 C 70 % 1013,0 hPa 0,0 l/m N 0,00 h 0 W/m 0,3 km/h (0 Bft)
02.04.2012 03:00 -0,6 C 75 % 1012,8 hPa 0,0 l/m N 0,00 h 0 W/m 1,3 km/h (1 Bft)
02.04.2012 04:00 -0,9 C 75 % 1012,4 hPa 0,0 l/m N 0,00 h 0 W/m 0,8 km/h (0 Bft)
02.04.2012 05:00 -1,1 C 74 % 1011,9 hPa 0,0 l/m N 0,00 h 0 W/m 2,3 km/h (1 Bft)
02.04.2012 06:00 -1,4 C 75 % 1011,6 hPa 0,0 l/m N 0,00 h 5 W/m 0,1 km/h (0 Bft)
02.04.2012 07:00 -1,0 C 74 % 1011,5 hPa 0,0 l/m N 0,00 h 28 W/m 0,0 km/h (0 Bft)
02.04.2012 08:00 1,4 C 66 % 1011,8 hPa 0,0 l/m NO 0,75 h 174 W/m 3,1 km/h (1 Bft)
02.04.2012 09:00 4,3 C 58 % 1011,6 hPa 0,0 l/m NO 1,00 h 359 W/m 6,7 km/h (2 Bft)
02.04.2012 10:00 8,1 C 39 % 1011,5 hPa 0,0 l/m NO 1,00 h 488 W/m 10,8 km/h (2 Bft)
02.04.2012 11:00 9,9 C 32 % 1010,9 hPa 0,0 l/m O-NO 1,00 h 588 W/m 9,8 km/h (2 Bft)
02.04.2012 12:00 11,7 C 32 % 1010,3 hPa 0,0 l/m O-SO 1,00 h 694 W/m 11,2 km/h (2 Bft)
02.04.2012 13:00 13,0 C 32 % 1009,4 hPa 0,0 l/m O-NO 1,00 h 786 W/m 10,6 km/h (2 Bft)
02.04.2012 14:00 14,6 C 31 % 1008,3 hPa 0,0 l/m O-NO 1,00 h 761 W/m 10,5 km/h (2 Bft)
02.04.2012 15:00 15,4 C 31 % 1007,2 hPa 0,0 l/m O-SO 1,00 h 674 W/m 9,8 km/h (2 Bft)
02.04.2012 16:00 15,8 C 31 % 1006,2 hPa 0,0 l/m O-SO 1,00 h 553 W/m 9,5 km/h (2 Bft)
02.04.2012 17:00 16,2 C 32 % 1005,4 hPa 0,0 l/m O-SO 1,00 h 396 W/m 6,2 km/h (2 Bft)
02.04.2012 18:00 15,5 C 34 % 1004,8 hPa 0,0 l/m N 1,00 h 200 W/m 7,2 km/h (2 Bft)
02.04.2012 19:00 13,2 C 42 % 1004,9 hPa 0,0 l/m N-NO 0,08 h 23 W/m 7,1 km/h (2 Bft)
02.04.2012 20:00 10,3 C 52 % 1004,9 hPa 0,0 l/m N 0,00 h 0 W/m 0,7 km/h (0 Bft)
02.04.2012 21:00 8,3 C 59 % 1005,1 hPa 0,0 l/m N 0,00 h 0 W/m 0,8 km/h (0 Bft)
02.04.2012 22:00 7,9 C 63 % 1005,0 hPa 0,0 l/m N 0,00 h 0 W/m 0,0 km/h (0 Bft)
02.04.2012 23:00 6,7 C 68 % 1004,7 hPa 0,0 l/m N 0,00 h 0 W/m 0,0 km/h (0 Bft)
03.04.2012 00:00 6,6 C 71 % 1004,4 hPa 0,0 l/m N 0,00 h 0 W/m 0,5 km/h (0 Bft)
03.04.2012 01:00 5,8 C 73 % 1004,3 hPa 0,0 l/m N 0,00 h 0 W/m 0,8 km/h (0 Bft)
03.04.2012 02:00 4,9 C 78 % 1004,2 hPa 0,0 l/m N 0,00 h 0 W/m 0,0 km/h (0 Bft)
03.04.2012 03:00 4,6 C 79 % 1003,9 hPa 0,0 l/m N 0,00 h 0 W/m 0,3 km/h (0 Bft)
03.04.2012 04:00 6,8 C 83 % 1003,7 hPa 0,4 l/m W 0,00 h 0 W/m 8,7 km/h (2 Bft)
03.04.2012 05:00 6,2 C 89 % 1003,4 hPa 0,0 l/m N 0,00 h 0 W/m 0,9 km/h (0 Bft)
03.04.2012 06:00 5,7 C 92 % 1003,3 hPa 0,2 l/m N 0,00 h 0 W/m 2,5 km/h (1 Bft)
03.04.2012 07:00 5,9 C 91 % 1003,4 hPa 0,0 l/m N 0,00 h 22 W/m 2,7 km/h (1 Bft)
03.04.2012 08:00 7,6 C 82 % 1003,7 hPa 0,0 l/m SW 0,25 h 115 W/m 9,8 km/h (2 Bft)
03.04.2012 09:00 10,0 C 78 % 1004,1 hPa 0,0 l/m SW 1,00 h 310 W/m 14,0 km/h (3 Bft)
03.04.2012 10:00 12,5 C 73 % 1004,4 hPa 0,0 l/m W-SW 1,00 h 449 W/m 21,7 km/h (4 Bft)
03.04.2012 11:00 13,9 C 67 % 1004,4 hPa 0,0 l/m SW 0,92 h 563 W/m 28,6 km/h (4 Bft)
03.04.2012 12:00 15,1 C 61 % 1004,0 hPa 0,0 l/m W-SW 0,92 h 631 W/m 28,8 km/h (5 Bft)
03.04.2012 13:00 15,8 C 57 % 1003,4 hPa 0,0 l/m W-SW 0,75 h 654 W/m 27,6 km/h (4 Bft)
03.04.2012 14:00 16,0 C 58 % 1003,1 hPa 0,0 l/m SW 0,50 h 409 W/m 29,2 km/h (5 Bft)
03.04.2012 15:00 16,0 C 57 % 1002,5 hPa 0,0 l/m W 0,75 h 489 W/m 19,0 km/h (3 Bft)
03.04.2012 16:00 16,7 C 52 % 1001,8 hPa 0,0 l/m SW 0,67 h 365 W/m 19,3 km/h (3 Bft)
03.04.2012 17:00 16,8 C 50 % 1001,2 hPa 0,0 l/m W-SW 0,67 h 308 W/m 19,3 km/h (3 Bft)
03.04.2012 18:00 14,3 C 54 % 1001,5 hPa 0,0 l/m W-NW 0,00 h 34 W/m 22,5 km/h (4 Bft)
03.04.2012 19:00 13,1 C 57 % 1001,1 hPa 0,0 l/m W-NW 0,00 h 13 W/m 11,2 km/h (2 Bft)
03.04.2012 20:00 12,8 C 60 % 1001,2 hPa 0,0 l/m W-NW 0,00 h 0 W/m 7,4 km/h (2 Bft)
03.04.2012 21:00 11,7 C 69 % 1001,8 hPa 0,0 l/m W 0,00 h 0 W/m 0,8 km/h (0 Bft)
03.04.2012 22:00 10,1 C 86 % 1002,9 hPa 0,8 l/m W-NW 0,00 h 0 W/m 19,6 km/h (3 Bft)
03.04.2012 23:00 9,5 C 92 % 1003,1 hPa 0,0 l/m SW 0,00 h 0 W/m 5,2 km/h (1 Bft)
04.04.2012 00:00 9,2 C 92 % 1003,0 hPa 0,2 l/m W 0,00 h 0 W/m 5,7 km/h (1 Bft)
04.04.2012 01:00 9,1 C 90 % 1002,8 hPa 0,0 l/m W-SW 0,00 h 0 W/m 10,1 km/h (2 Bft)
04.04.2012 02:00 9,1 C 89 % 1003,0 hPa 0,0 l/m W-SW 0,00 h 0 W/m 13,6 km/h (3 Bft)
04.04.2012 03:00 9,1 C 88 % 1003,4 hPa 0,0 l/m W-SW 0,00 h 0 W/m 14,4 km/h (3 Bft)
04.04.2012 04:00 8,5 C 89 % 1003,9 hPa 0,4 l/m W-SW 0,00 h 0 W/m 14,4 km/h (3 Bft)
04.04.2012 05:00 7,8 C 93 % 1003,9 hPa 0,6 l/m W-SW 0,00 h 0 W/m 8,7 km/h (2 Bft)
04.04.2012 06:00 7,5 C 94 % 1004,0 hPa 1,2 l/m W-SW 0,00 h 0 W/m 5,8 km/h (1 Bft)
04.04.2012 07:00 7,4 C 96 % 1004,3 hPa 1,0 l/m S-SO 0,00 h 9 W/m 4,8 km/h (1 Bft)
04.04.2012 08:00 7,7 C 97 % 1004,6 hPa 1,2 l/m S-SW 0,00 h 40 W/m 4,0 km/h (1 Bft)
04.04.2012 09:00 8,1 C 97 % 1005,1 hPa 1,0 l/m S-SW 0,00 h 71 W/m 7,2 km/h (2 Bft)
04.04.2012 10:00 8,9 C 95 % 1005,5 hPa 0,2 l/m SW 0,00 h 115 W/m 7,1 km/h (2 Bft)
04.04.2012 11:00 10,1 C 91 % 1005,5 hPa 0,0 l/m SW 0,50 h 417 W/m 4,8 km/h (1 Bft)
04.04.2012 12:00 11,5 C 84 % 1005,7 hPa 0,2 l/m NW 0,00 h 256 W/m 7,4 km/h (2 Bft)
04.04.2012 13:00 11,9 C 81 % 1005,8 hPa 0,0 l/m NW 0,08 h 247 W/m 7,4 km/h (2 Bft)
04.04.2012 14:00 12,6 C 75 % 1005,8 hPa 0,0 l/m NW 0,00 h 254 W/m 9,1 km/h (2 Bft)
04.04.2012 15:00 13,0 C 73 % 1005,7 hPa 0,0 l/m N 0,08 h 179 W/m 10,5 km/h (2 Bft)
04.04.2012 16:00 11,5 C 82 % 1006,1 hPa 0,0 l/m N 0,00 h 69 W/m 13,0 km/h (3 Bft)
04.04.2012 17:00 11,0 C 84 % 1006,2 hPa 0,0 l/m N 0,00 h 92 W/m 11,8 km/h (2 Bft)
04.04.2012 18:00 10,6 C 86 % 1006,3 hPa 0,0 l/m N-NO 0,00 h 53 W/m 10,2 km/h (2 Bft)
04.04.2012 19:00 9,8 C 87 % 1006,7 hPa 0,0 l/m N 0,00 h 9 W/m 7,1 km/h (2 Bft)
04.04.2012 20:00 9,3 C 89 % 1007,2 hPa 0,0 l/m N 0,00 h 0 W/m 6,7 km/h (2 Bft)
04.04.2012 21:00 9,1 C 88 % 1007,8 hPa 0,0 l/m N-NO 0,00 h 0 W/m 5,1 km/h (1 Bft)
04.04.2012 22:00 8,9 C 88 % 1008,0 hPa 0,0 l/m N-NO 0,00 h 0 W/m 3,9 km/h (1 Bft)
04.04.2012 23:00 8,7 C 90 % 1008,1 hPa 0,0 l/m N-NO 0,00 h 0 W/m 5,9 km/h (2 Bft)
05.04.2012 00:00 8,5 C 90 % 1008,0 hPa 0,0 l/m N-NO 0,00 h 0 W/m 8,4 km/h (2 Bft)
05.04.2012 01:00 8,3 C 91 % 1007,9 hPa 0,0 l/m N-NO 0,00 h 0 W/m 9,0 km/h (2 Bft)
05.04.2012 02:00 8,3 C 90 % 1007,6 hPa 0,0 l/m NO 0,00 h 0 W/m 8,9 km/h (2 Bft)
05.04.2012 03:00 8,2 C 91 % 1007,4 hPa 0,0 l/m NO 0,00 h 0 W/m 8,9 km/h (2 Bft)
05.04.2012 04:00 8,1 C 91 % 1007,2 hPa 0,0 l/m NO 0,00 h 0 W/m 9,9 km/h (2 Bft)
05.04.2012 05:00 7,9 C 92 % 1007,2 hPa 0,0 l/m NO 0,00 h 0 W/m 10,6 km/h (2 Bft)
05.04.2012 06:00 7,8 C 91 % 1007,3 hPa 0,0 l/m NO 0,00 h 0 W/m 8,9 km/h (2 Bft)
05.04.2012 07:00 7,8 C 91 % 1007,5 hPa 0,0 l/m NO 0,00 h 9 W/m 8,8 km/h (2 Bft)
05.04.2012 08:00 7,8 C 92 % 1007,5 hPa 0,0 l/m NO 0,00 h 39 W/m 10,9 km/h (2 Bft)
05.04.2012 09:00 7,9 C 93 % 1007,7 hPa 0,4 l/m NO 0,00 h 36 W/m 10,8 km/h (2 Bft)
05.04.2012 10:00 7,9 C 94 % 1008,3 hPa 0,6 l/m NO 0,00 h 30 W/m 9,5 km/h (2 Bft)
05.04.2012 11:00 8,1 C 96 % 1008,7 hPa 1,4 l/m N-NO 0,00 h 44 W/m 9,8 km/h (2 Bft)
05.04.2012 12:00 8,2 C 96 % 1008,6 hPa 1,6 l/m N-NO 0,00 h 48 W/m 13,3 km/h (3 Bft)
05.04.2012 13:00 8,1 C 96 % 1008,6 hPa 0,6 l/m NO 0,00 h 50 W/m 15,6 km/h (3 Bft)
05.04.2012 14:00 8,0 C 96 % 1008,7 hPa 1,8 l/m NO 0,00 h 41 W/m 11,3 km/h (2 Bft)
05.04.2012 15:00 7,9 C 96 % 1008,7 hPa 1,8 l/m NO 0,00 h 55 W/m 12,5 km/h (3 Bft)
05.04.2012 16:00 7,8 C 96 % 1008,6 hPa 0,8 l/m N-NO 0,00 h 34 W/m 11,2 km/h (2 Bft)
05.04.2012 17:00 7,7 C 96 % 1008,8 hPa 0,4 l/m N-NO 0,00 h 17 W/m 9,7 km/h (2 Bft)
05.04.2012 18:00 7,4 C 97 % 1009,1 hPa 0,4 l/m NO 0,00 h 10 W/m 8,9 km/h (2 Bft)
05.04.2012 19:00 7,1 C 97 % 1009,4 hPa 0,2 l/m N-NO 0,00 h 6 W/m 10,9 km/h (2 Bft)
05.04.2012 20:00 6,8 C 97 % 1010,0 hPa 0,2 l/m N-NO 0,00 h 0 W/m 9,9 km/h (2 Bft)
05.04.2012 21:00 6,6 C 97 % 1010,6 hPa 0,0 l/m N-NO 0,00 h 0 W/m 10,9 km/h (2 Bft)
05.04.2012 22:00 6,5 C 97 % 1010,9 hPa 0,0 l/m N-NO 0,00 h 0 W/m 7,5 km/h (2 Bft)
05.04.2012 23:00 6,3 C 98 % 1010,6 hPa 0,2 l/m N-NO 0,00 h 0 W/m 7,8 km/h (2 Bft)
06.04.2012 00:00 6,2 C 98 % 1010,3 hPa 0,0 l/m N-NO 0,00 h 0 W/m 7,8 km/h (2 Bft)
06.04.2012 01:00 6,2 C 97 % 1010,0 hPa 0,0 l/m NO 0,00 h 0 W/m 8,8 km/h (2 Bft)
06.04.2012 02:00 6,1 C 97 % 1009,8 hPa 0,0 l/m NO 0,00 h 0 W/m 6,1 km/h (2 Bft)
06.04.2012 03:00 6,0 C 98 % 1009,4 hPa 0,0 l/m NO 0,00 h 0 W/m 7,3 km/h (2 Bft)
06.04.2012 04:00 5,9 C 97 % 1009,3 hPa 0,0 l/m NO 0,00 h 0 W/m 6,7 km/h (2 Bft)
06.04.2012 05:00 5,8 C 97 % 1009,1 hPa 0,0 l/m NO 0,00 h 0 W/m 6,1 km/h (2 Bft)
06.04.2012 06:00 5,5 C 97 % 1009,0 hPa 0,2 l/m NO 0,00 h 0 W/m 5,1 km/h (1 Bft)
06.04.2012 07:00 5,3 C 98 % 1009,2 hPa 0,6 l/m NO 0,00 h 10 W/m 4,3 km/h (1 Bft)
06.04.2012 08:00 5,4 C 98 % 1009,4 hPa 0,4 l/m NO 0,00 h 17 W/m 3,6 km/h (1 Bft)
06.04.2012 09:00 5,8 C 97 % 1009,6 hPa 0,4 l/m NO 0,00 h 86 W/m 4,4 km/h (1 Bft)
06.04.2012 10:00 6,5 C 95 % 1009,9 hPa 0,0 l/m N 0,00 h 108 W/m 3,1 km/h (1 Bft)
06.04.2012 11:00 7,1 C 92 % 1009,9 hPa 0,0 l/m N 0,00 h 131 W/m 2,3 km/h (1 Bft)
06.04.2012 12:00 7,9 C 89 % 1009,5 hPa 0,0 l/m NO 0,00 h 182 W/m 5,1 km/h (1 Bft)
06.04.2012 13:00 8,5 C 86 % 1009,2 hPa 0,0 l/m NO 0,00 h 160 W/m 5,6 km/h (1 Bft)
06.04.2012 14:00 8,4 C 87 % 1008,8 hPa 0,0 l/m NO 0,00 h 101 W/m 6,4 km/h (2 Bft)
06.04.2012 15:00 8,7 C 86 % 1008,2 hPa 0,0 l/m NO 0,00 h 106 W/m 4,0 km/h (1 Bft)
06.04.2012 16:00 9,0 C 86 % 1007,6 hPa 0,0 l/m NO 0,00 h 105 W/m 2,9 km/h (1 Bft)
06.04.2012 17:00 9,3 C 84 % 1007,1 hPa 0,0 l/m NO 0,00 h 113 W/m 3,9 km/h (1 Bft)
06.04.2012 18:00 9,6 C 83 % 1006,7 hPa 0,0 l/m NO 0,25 h 104 W/m 3,3 km/h (1 Bft)
06.04.2012 19:00 9,2 C 84 % 1006,4 hPa 0,0 l/m NO 0,00 h 20 W/m 1,9 km/h (1 Bft)
06.04.2012 20:00 8,4 C 89 % 1006,3 hPa 0,0 l/m N 0,00 h 0 W/m 0,0 km/h (0 Bft)
06.04.2012 21:00 7,8 C 93 % 1006,5 hPa 0,0 l/m N 0,00 h 0 W/m 0,0 km/h (0 Bft)
06.04.2012 22:00 7,7 C 94 % 1006,4 hPa 0,0 l/m NO 0,00 h 0 W/m 2,7 km/h (1 Bft)
06.04.2012 23:00 7,5 C 95 % 1006,1 hPa 0,0 l/m N 0,00 h 0 W/m 0,8 km/h (0 Bft)
07.04.2012 00:00 6,5 C 96 % 1005,6 hPa 0,0 l/m NO 0,00 h 0 W/m 1,3 km/h (1 Bft)
07.04.2012 01:00 5,8 C 97 % 1005,2 hPa 0,0 l/m N-NO 0,00 h 0 W/m 3,3 km/h (1 Bft)
07.04.2012 02:00 5,9 C 98 % 1004,5 hPa 0,0 l/m N-NO 0,00 h 0 W/m 5,6 km/h (1 Bft)
07.04.2012 03:00 6,2 C 99 % 1004,0 hPa 0,0 l/m N-NO 0,00 h 0 W/m 2,8 km/h (1 Bft)
07.04.2012 04:00 6,3 C 98 % 1003,5 hPa 0,0 l/m N 0,00 h 0 W/m 0,4 km/h (0 Bft)
07.04.2012 05:00 6,2 C 98 % 1003,2 hPa 0,0 l/m N 0,00 h 0 W/m 0,9 km/h (0 Bft)
07.04.2012 06:00 6,1 C 96 % 1002,9 hPa 0,0 l/m N 0,00 h 0 W/m 1,2 km/h (1 Bft)
07.04.2012 07:00 5,8 C 95 % 1002,9 hPa 0,0 l/m N-NO 0,00 h 11 W/m 2,5 km/h (1 Bft)
07.04.2012 08:00 6,0 C 93 % 1002,9 hPa 0,0 l/m N-NW 0,00 h 35 W/m 6,8 km/h (2 Bft)
07.04.2012 09:00 7,0 C 90 % 1003,2 hPa 0,0 l/m N-NW 0,00 h 114 W/m 7,0 km/h (2 Bft)
07.04.2012 10:00 7,8 C 84 % 1003,5 hPa 0,0 l/m NW 0,00 h 94 W/m 10,5 km/h (2 Bft)
07.04.2012 11:00 6,4 C 84 % 1004,2 hPa 0,0 l/m NW 0,00 h 130 W/m 21,2 km/h (4 Bft)
07.04.2012 12:00 4,6 C 90 % 1004,5 hPa 0,6 l/m NW 0,00 h 101 W/m 9,7 km/h (2 Bft)
07.04.2012 13:00 6,0 C 87 % 1004,2 hPa 0,0 l/m N 0,00 h 246 W/m 8,0 km/h (2 Bft)
07.04.2012 14:00 7,0 C 77 % 1003,8 hPa 0,0 l/m N-NW 0,00 h 244 W/m 11,7 km/h (2 Bft)
07.04.2012 15:00 7,8 C 69 % 1003,5 hPa 0,0 l/m N-NO 0,08 h 221 W/m 13,6 km/h (3 Bft)
07.04.2012 16:00 8,3 C 65 % 1003,4 hPa 0,0 l/m N-NW 0,25 h 246 W/m 11,4 km/h (2 Bft)
07.04.2012 17:00 7,3 C 69 % 1003,4 hPa 0,0 l/m N-NO 0,00 h 58 W/m 17,2 km/h (3 Bft)
07.04.2012 18:00 6,3 C 75 % 1003,7 hPa 0,0 l/m NO 0,00 h 29 W/m 12,9 km/h (3 Bft)
07.04.2012 19:00 6,0 C 74 % 1004,1 hPa 0,0 l/m NO 0,00 h 14 W/m 7,7 km/h (2 Bft)
07.04.2012 20:00 5,4 C 74 % 1004,7 hPa 0,0 l/m NO 0,00 h 0 W/m 3,3 km/h (1 Bft)
07.04.2012 21:00 4,9 C 77 % 1004,9 hPa 0,0 l/m N 0,00 h 0 W/m 1,3 km/h (1 Bft)
07.04.2012 22:00 4,5 C 82 % 1005,1 hPa 0,0 l/m NO 0,00 h 0 W/m 0,5 km/h (0 Bft)
07.04.2012 23:00 4,4 C 79 % 1005,4 hPa 0,0 l/m NO 0,00 h 0 W/m 6,4 km/h (2 Bft)
08.04.2012 00:00 3,8 C 81 % 1005,4 hPa 0,0 l/m N 0,00 h 0 W/m 10,3 km/h (2 Bft)
08.04.2012 01:00 2,6 C 89 % 1005,6 hPa 0,6 l/m N 0,00 h 0 W/m 9,3 km/h (2 Bft)
08.04.2012 02:00 1,8 C 93 % 1005,9 hPa 0,2 l/m NO 0,00 h 0 W/m 9,4 km/h (2 Bft)
08.04.2012 03:00 1,0 C 95 % 1006,0 hPa 0,2 l/m N-NO 0,00 h 0 W/m 9,1 km/h (2 Bft)
08.04.2012 04:00 0,3 C 95 % 1006,3 hPa 0,0 l/m N-NO 0,00 h 0 W/m 10,5 km/h (2 Bft)
08.04.2012 05:00 0,3 C 96 % 1006,6 hPa 0,0 l/m N-NO 0,00 h 0 W/m 6,3 km/h (2 Bft)
08.04.2012 06:00 0,0 C 95 % 1007,4 hPa 0,0 l/m N-NO 0,00 h 0 W/m 7,8 km/h (2 Bft)
08.04.2012 07:00 -0,3 C 92 % 1008,7 hPa 0,0 l/m NO 0,00 h 17 W/m 10,1 km/h (2 Bft)
08.04.2012 08:00 -0,3 C 88 % 1010,1 hPa 0,0 l/m NO 0,00 h 70 W/m 4,7 km/h (1 Bft)
08.04.2012 09:00 -0,1 C 84 % 1011,1 hPa 0,0 l/m NO 0,00 h 120 W/m 5,9 km/h (2 Bft)
08.04.2012 10:00 0,5 C 79 % 1012,2 hPa 0,0 l/m NO 0,08 h 213 W/m 7,2 km/h (2 Bft)
08.04.2012 11:00 1,1 C 69 % 1012,9 hPa 1,4 l/m NO 0,00 h 182 W/m 9,3 km/h (2 Bft)
08.04.2012 12:00 1,7 C 65 % 1013,2 hPa 1,4 l/m NO 0,00 h 282 W/m 6,0 km/h (2 Bft)
08.04.2012 13:00 2,3 C 59 % 1013,7 hPa 0,0 l/m W-NW 0,00 h 194 W/m 6,0 km/h (2 Bft)
08.04.2012 14:00 3,0 C 53 % 1014,0 hPa 0,0 l/m N 0,17 h 351 W/m 10,6 km/h (2 Bft)
08.04.2012 15:00 3,1 C 52 % 1014,0 hPa 0,0 l/m NW 0,08 h 243 W/m 9,7 km/h (2 Bft)
08.04.2012 16:00 4,0 C 50 % 1014,1 hPa 0,0 l/m W-NW 0,42 h 419 W/m 10,3 km/h (2 Bft)
08.04.2012 17:00 3,8 C 49 % 1014,3 hPa 0,0 l/m N-NO 0,25 h 178 W/m 7,2 km/h (2 Bft)
08.04.2012 18:00 3,3 C 69 % 1014,6 hPa 0,0 l/m SW 0,00 h 86 W/m 13,3 km/h (3 Bft)
08.04.2012 19:00 2,4 C 75 % 1014,9 hPa 0,0 l/m S-SW 0,08 h 15 W/m 11,3 km/h (2 Bft)
08.04.2012 20:00 1,6 C 76 % 1015,3 hPa 0,0 l/m W-SW 0,00 h 0 W/m 10,1 km/h (2 Bft)
08.04.2012 21:00 1,3 C 80 % 1015,9 hPa 0,0 l/m W-SW 0,00 h 0 W/m 11,7 km/h (2 Bft)
08.04.2012 22:00 1,0 C 84 % 1016,0 hPa 0,0 l/m W-SW 0,00 h 0 W/m 9,8 km/h (2 Bft)
08.04.2012 23:00 0,2 C 87 % 1015,8 hPa 0,0 l/m SW 0,00 h 0 W/m 7,5 km/h (2 Bft)
Min-Datum _ 02.04.12 02.04.12 03.04.12 - - - - 02.04.12
_ Min-Zeit 06:30 14:35 19:25 - - - - 00:00
Minimum _ -1,6 C 29 % 1000,9 hPa - - - - 0,0 km/h (0 Bft)
Max-Datum _ 03.04.12 07.04.12 08.04.12 05.04.12 - 02.04.12 08.04.12 03.04.12
_ Max-Zeit 16:25 03:25 22:25 14:05 - 08:15 14:45 14:10
Maximum _ 17,2 C 99 % 1016,2 hPa 1,8 l/m - 0,08 h 916 W/m 40,2 km/h
SW (6 Bft)
Durchschnitt _ 7,2 C 80 % 1007,2 hPa #23,8 l/m NO #20:35 h 190 W/m 7,9 km/h (2 Bft)